Terminal Aerodrome Forecast
Issued by NWS Charleston, WV

Current Version | Previous Version | Graphics & Text | Print | Product List | Glossary On
Versions: 1 2 3 4 5 6 7 8 9 10 11 12 13 14 15 16 17 18 19 20 21 22 23 24 25
000
FTUS41 KRLX 161138
TAFHTS
TAF
KHTS 161138Z 1612/1712 VRB03KT 2SM BR OVC005
     FM161400 VRB03KT 4SM BR OVC008
     FM161600 VRB03KT P6SM OVC015
     FM162000 11003KT P6SM BKN045
     FM170600 15003KT 4SM -SHRA OVC045
     FM171000 18005KT 3SM -SHRA OVC045=

USA.gov is the U.S. government's official web portal to all federal, state and local government web resources and services.